Jump to content

  •  

SOUTHWEST AIRLINES FLIGHT WN6800 FLOWN ON 11-17-2017 BY CAPTAIN TYLER HANUS

Pilot StatsCaptain Tyler Hanus (LDP525) • 262.7 total hours • 63 total flights [View Logbook]
FLIGHT DETAILS
StatusReceived and approved on 2017-11-17 at 13:11:26
Origin AirportBaltimore-Washington Intl (KBWI) • Baltimore, Maryland, United States (146 feet MSL)
Filed Flight PlanFLIGHT PLANNER OFFLINE
Destination AirportHartsfield - Jackson Atlanta I (KATL) • Atlanta, Georgia, United States (1,026 feet MSL)
Alternate AirportNone Filed
AirlineSouthwest Airlines
AircraftBoeing 737-700 | Winglets (73W / B737-700)
FS Aircraft UsedBoeing 737-7H4NG Southwest Airlines N708SW Goldstar Textures
Cruising AltitudeFL380
Distance Flown501 nautical miles
Passengers Onboard82 passengers (60.29% full)
DEPARTURE DETAILS
Time Out11:58:28
Taxi Data122,037 lbs total with 16,126 lbs of fuel onboard
Takeoff Data12:08:19 (10 minutes after leaving gate/ramp) • 121,610 lbs total • 5° pitch at 137 knots
Departure METARKBWI 171554Z 30011KT 10SM FEW048 FEW250 09/M02 A3021 RMK AO2 SLP229 T00891022
ARRIVAL DETAILS
Landing Data13:43:13 • 112,770 lbs total • 7° pitch doing 107 knots at a rate of -173.78 feet/minute with 6,594 lbs of fuel onboard
Time In13:50:04 (7 minutes after landing)
Ramp Weight112,505 lbs total
Total Fuel Used9,532 lbs
Total Block Time01:46:29 (1.8 hours) while 17 minutes were spent on the ground
Arrival METARKATL 171752Z 10008G14KT 10SM FEW250 17/06 A3013 RMK AO2 SLP204 T01720056 10172 20050 58022
MISCELLANEOUS DETAILS
LiveDISPATCH Version4.8.3.1
FS Version
FSUIPC Version4.97
OS VersionWindows 7 32-bit
Screen Resolution1360 x 768
Pilot's CommentsNo Comments Reported
FLIGHT MAP